Map

Track Data

SID SEASON NUMBER BASIN SUBBASIN NAME ISO_TIME NATURE LAT LON WMO_WIND WMO_PRES WMO_AGENCY TRACK_TYPE DIST2LAND LANDFALL IFLAG USA_AGENCY USA_ATCF_ID USA_LAT USA_LON USA_RECORD USA_STATUS USA_WIND USA_PRES USA_SSHS USA_R34_NE USA_R34_SE USA_R34_SW USA_R34_NW USA_R50_NE USA_R50_SE USA_R50_SW USA_R50_NW USA_R64_NE USA_R64_SE USA_R64_SW USA_R64_NW USA_POCI USA_ROCI USA_RMW USA_EYE TOKYO_LAT TOKYO_LON TOKYO_GRADE TOKYO_WIND TOKYO_PRES TOKYO_R50_DIR TOKYO_R50_LONG TOKYO_R50_SHORT TOKYO_R30_DIR TOKYO_R30_LONG TOKYO_R30_SHORT TOKYO_LAND CMA_LAT CMA_LON CMA_CAT CMA_WIND CMA_PRES HKO_LAT HKO_LON HKO_CAT HKO_WIND HKO_PRES NEWDELHI_LAT NEWDELHI_LON NEWDELHI_GRADE NEWDELHI_WIND NEWDELHI_PRES NEWDELHI_CI NEWDELHI_DP NEWDELHI_POCI REUNION_LAT REUNION_LON REUNION_TYPE REUNION_WIND REUNION_PRES REUNION_TNUM REUNION_CI REUNION_RMW REUNION_R34_NE REUNION_R34_SE REUNION_R34_SW REUNION_R34_NW REUNION_R50_NE REUNION_R50_SE REUNION_R50_SW REUNION_R50_NW REUNION_R64_NE REUNION_R64_SE REUNION_R64_SW REUNION_R64_NW BOM_LAT BOM_LON BOM_TYPE BOM_WIND BOM_PRES BOM_TNUM BOM_CI BOM_RMW BOM_R34_NE BOM_R34_SE BOM_R34_SW BOM_R34_NW BOM_R50_NE BOM_R50_SE BOM_R50_SW BOM_R50_NW BOM_R64_NE BOM_R64_SE BOM_R64_SW BOM_R64_NW BOM_ROCI BOM_POCI BOM_EYE BOM_POS_METHOD BOM_PRES_METHOD NADI_LAT NADI_LON NADI_CAT NADI_WIND NADI_PRES WELLINGTON_LAT WELLINGTON_LON WELLINGTON_WIND WELLINGTON_PRES DS824_LAT DS824_LON DS824_STAGE DS824_WIND DS824_PRES TD9636_LAT TD9636_LON TD9636_STAGE TD9636_WIND TD9636_PRES TD9635_LAT TD9635_LON TD9635_WIND TD9635_PRES TD9635_ROCI NEUMANN_LAT NEUMANN_LON NEUMANN_CLASS NEUMANN_WIND NEUMANN_PRES MLC_LAT MLC_LON MLC_CLASS MLC_WIND MLC_PRES USA_GUST BOM_GUST BOM_GUST_PER REUNION_GUST REUNION_GUST_PER USA_SEAHGT USA_SEARAD_NE USA_SEARAD_SE USA_SEARAD_SW USA_SEARAD_NW STORM_SPEED STORM_DIR
1956265N18274 1956 94 NA CS FLOSSY 1956-09-20 18:00:00 TS 18.0000 -86.5000 25 hurdat_atl main 139 118 O_____________ hurdat_atl AL071956 18.0000 -86.5000 TD 25 -1 4 280
1956265N18274 1956 94 NA CS FLOSSY 1956-09-20 21:00:00 TS 18.0400 -86.7300 main 118 85 P_____________ AL071956 18.0400 -86.7300 TD 25 -1 5 282
1956265N18274 1956 94 NA CS FLOSSY 1956-09-21 00:00:00 TS 18.1000 -87.0000 25 hurdat_atl main 85 52 O_____________ hurdat_atl AL071956 18.1000 -87.0000 TD 25 -1 6 285
1956265N18274 1956 94 NA CS FLOSSY 1956-09-21 03:00:00 TS 18.1925 -87.3350 main 52 10 P_____________ AL071956 18.1925 -87.3350 TD 25 -1 7 287
1956265N18274 1956 94 NA CS FLOSSY 1956-09-21 06:00:00 TS 18.3000 -87.7000 25 hurdat_atl main 10 0 O_____________ hurdat_atl AL071956 18.3000 -87.7000 TD 25 -1 7 286
1956265N18274 1956 94 NA CS FLOSSY 1956-09-21 09:00:00 TS 18.3849 -88.0501 main 11 0 P_____________ AL071956 18.3849 -88.0501 TD 25 -1 7 287
1956265N18274 1956 94 NA NA FLOSSY 1956-09-21 12:00:00 TS 18.5000 -88.4000 25 hurdat_atl main 0 0 O_____________ hurdat_atl AL071956 18.5000 -88.4000 TD 25 -1 7 293
1956265N18274 1956 94 NA NA FLOSSY 1956-09-21 15:00:00 TS 18.6700 -88.7576 main 0 0 P_____________ AL071956 18.6700 -88.7576 TD 25 -1 8 301
1956265N18274 1956 94 NA NA FLOSSY 1956-09-21 18:00:00 TS 18.9000 -89.1000 25 hurdat_atl main 0 0 O_____________ hurdat_atl AL071956 18.9000 -89.1000 TD 25 -1 8 308
1956265N18274 1956 94 NA NA FLOSSY 1956-09-21 21:00:00 TS 19.1625 -89.4226 main 0 0 P_____________ AL071956 19.1625 -89.4226 TD 25 -1 8 317
1956265N18274 1956 94 NA NA FLOSSY 1956-09-22 00:00:00 TS 19.5000 -89.7000 25 hurdat_atl main 0 0 O_____________ hurdat_atl AL071956 19.5000 -89.7000 TD 25 -1 9 328
1956265N18274 1956 94 NA NA FLOSSY 1956-09-22 03:00:00 TS 19.9124 -89.9226 main 0 0 P_____________ AL071956 19.9124 -89.9226 TD 27 -1 10 337
1956265N18274 1956 94 NA NA FLOSSY 1956-09-22 06:00:00 TS 20.4000 -90.1000 30 hurdat_atl main 0 0 O_____________ hurdat_atl AL071956 20.4000 -90.1000 TD 30 -1 11 343
1956265N18274 1956 94 NA NA FLOSSY 1956-09-22 09:00:00 TS 20.9350 -90.2576 main 0 0 P_____________ AL071956 20.9350 -90.2576 TD 32 -1 11 346
1956265N18274 1956 94 NA GM FLOSSY 1956-09-22 12:00:00 TS 21.5000 -90.4000 35 hurdat_atl main 45 45 O_____________ hurdat_atl AL071956 21.5000 -90.4000 TS 35 0 11 346
1956265N18274 1956 94 NA GM FLOSSY 1956-09-22 15:00:00 TS 22.0425 -90.5575 main 105 105 P_____________ AL071956 22.0425 -90.5575 TS 37 0 11 346
1956265N18274 1956 94 NA GM FLOSSY 1956-09-22 18:00:00 TS 22.6000 -90.7000 40 hurdat_atl main 172 172 O_____________ hurdat_atl AL071956 22.6000 -90.7000 TS 40 0 12 349
1956265N18274 1956 94 NA GM FLOSSY 1956-09-22 21:00:00 TS 23.1925 -90.8077 main 240 240 P_____________ AL071956 23.1925 -90.8077 TS 45 0 12 351
1956265N18274 1956 94 NA GM FLOSSY 1956-09-23 00:00:00 TS 23.8000 -90.9000 50 hurdat_atl main 308 308 O_____________ hurdat_atl AL071956 23.8000 -90.9000 TS 50 0 12 352
1956265N18274 1956 94 NA GM FLOSSY 1956-09-23 03:00:00 TS 24.4000 -91.0001 main 375 375 P_____________ AL071956 24.4000 -91.0001 TS 52 0 12 351
1956265N18274 1956 94 NA GM FLOSSY 1956-09-23 06:00:00 TS 25.0000 -91.1000 55 994 hurdat_atl main 442 391 O_____________ hurdat_atl AL071956 25.0000 -91.1000 TS 55 994 0 12 351
1956265N18274 1956 94 NA GM FLOSSY 1956-09-23 09:00:00 TS 25.6225 -91.2149 main 391 326 P_____________ AL071956 25.6225 -91.2149 TS 57 0 12 351
1956265N18274 1956 94 NA GM FLOSSY 1956-09-23 12:00:00 TS 26.2000 -91.3000 60 hurdat_atl main 326 281 O_____________ hurdat_atl AL071956 26.2000 -91.3000 TS 60 0 11 354
1956265N18274 1956 94 NA GM FLOSSY 1956-09-23 15:00:00 TS 26.6724 -91.3449 main 270 226 P_____________ AL071956 26.6724 -91.3449 TS 65 1 9 0
1956265N18274 1956 94 NA GM FLOSSY 1956-09-23 18:00:00 TS 27.1000 -91.3000 70 hurdat_atl main 226 181 O_____________ hurdat_atl AL071956 27.1000 -91.3000 HU 70 1 9 10
1956265N18274 1956 94 NA GM FLOSSY 1956-09-23 21:00:00 TS 27.5649 -91.1600 main 170 122 P_____________ AL071956 27.5649 -91.1600 HU 72 1 10 21
1956265N18274 1956 94 NA GM FLOSSY 1956-09-24 00:00:00 TS 28.0000 -90.9000 75 984 hurdat_atl main 122 78 O_____________ hurdat_atl AL071956 28.0000 -90.9000 HU 75 984 1 10 34
1956265N18274 1956 94 NA GM FLOSSY 1956-09-24 03:00:00 TS 28.3732 -90.5511 main 78 44 P_____________ AL071956 28.3732 -90.5511 HU 75 982 1 10 45
1956265N18274 1956 94 NA GM FLOSSY 1956-09-24 06:00:00 TS 28.7000 -90.1000 75 hurdat_atl main 44 22 I_____________ hurdat_atl AL071956 28.7000 -90.1000 HU 75 981 1 10 54
1956265N18274 1956 94 NA GM FLOSSY 1956-09-24 09:00:00 TS 28.9816 -89.6093 main 22 0 P_____________ AL071956 28.9816 -89.6093 HU 75 980 1 11 57
1956265N18274 1956 94 NA GM FLOSSY 1956-09-24 10:00:00 TS 29.1000 -89.4000 75 980 hurdat_atl main 0 0 O_____________ hurdat_atl AL071956 29.1000 -89.4000 L HU 75 980 1 15 56
1956265N18274 1956 94 NA GM FLOSSY 1956-09-24 12:00:00 TS 29.4000 -88.9000 75 980 hurdat_atl main 29 29 O_____________ hurdat_atl AL071956 29.4000 -88.9000 HU 75 980 1 14 60
1956265N18274 1956 94 NA GM FLOSSY 1956-09-24 15:00:00 TS 29.6962 -88.2195 main 59 44 P_____________ AL071956 29.6962 -88.2195 HU 77 978 1 12 66
1956265N18274 1956 94 NA GM FLOSSY 1956-09-24 18:00:00 TS 29.9000 -87.6000 80 hurdat_atl main 44 22 I_____________ hurdat_atl AL071956 29.9000 -87.6000 HU 80 977 1 12 67
1956265N18274 1956 94 NA GM FLOSSY 1956-09-24 21:00:00 TS 30.1573 -86.9774 main 22 9 P_____________ AL071956 30.1573 -86.9774 HU 80 975 1 12 64
1956265N18274 1956 94 NA GM FLOSSY 1956-09-25 00:00:00 TS 30.4000 -86.4000 80 974 hurdat_atl main 11 0 O_____________ hurdat_atl AL071956 30.4000 -86.4000 L HU 80 974 1 10 64
1956265N18274 1956 94 NA NA FLOSSY 1956-09-25 03:00:00 TS 30.6071 -85.8846 main 0 0 P_____________ AL071956 30.6071 -85.8846 HU 65 1 9 65
1956265N18274 1956 94 NA NA FLOSSY 1956-09-25 06:00:00 TS 30.8000 -85.4000 50 hurdat_atl main 0 0 O_____________ hurdat_atl AL071956 30.8000 -85.4000 TS 50 0 9 66
1956265N18274 1956 94 NA NA FLOSSY 1956-09-25 09:00:00 TS 30.9771 -84.9143 main 0 0 P_____________ AL071956 30.9771 -84.9143 TS 45 0 9 65
1956265N18274 1956 94 NA NA FLOSSY 1956-09-25 12:00:00 TS 31.2000 -84.4000 40 hurdat_atl main 0 0 O_____________ hurdat_atl AL071956 31.2000 -84.4000 TS 40 0 11 59
1956265N18274 1956 94 NA NA FLOSSY 1956-09-25 15:00:00 TS 31.5272 -83.8299 main 0 0 P_____________ AL071956 31.5272 -83.8299 TS 37 0 12 56
1956265N18274 1956 94 NA NA FLOSSY 1956-09-25 18:00:00 ET 31.9000 -83.2000 35 998 hurdat_atl main 0 0 O_____________ hurdat_atl AL071956 31.9000 -83.2000 EX 35 998 -4 13 57
1956265N18274 1956 94 NA NA FLOSSY 1956-09-25 21:00:00 ET 32.2422 -82.5218 main 0 0 P_____________ AL071956 32.2422 -82.5218 EX 37 998 -4 14 59
1956265N18274 1956 94 NA NA FLOSSY 1956-09-26 00:00:00 ET 32.6000 -81.8000 40 999 hurdat_atl main 0 0 O_____________ hurdat_atl AL071956 32.6000 -81.8000 EX 40 999 -4 15 59
1956265N18274 1956 94 NA NA FLOSSY 1956-09-26 03:00:00 ET 33.0001 -81.0351 main 0 0 P_____________ AL071956 33.0001 -81.0351 EX 42 999 -4 15 58
1956265N18274 1956 94 NA NA FLOSSY 1956-09-26 06:00:00 ET 33.4000 -80.3000 45 999 hurdat_atl main 0 0 O_____________ hurdat_atl AL071956 33.4000 -80.3000 EX 45 999 -4 14 56
1956265N18274 1956 94 NA NA FLOSSY 1956-09-26 09:00:00 ET 33.7798 -79.6399 main 0 0 P_____________ AL071956 33.7798 -79.6399 EX 45 1000 -4 12 55
1956265N18274 1956 94 NA NA FLOSSY 1956-09-26 12:00:00 ET 34.1000 -79.1000 45 1001 hurdat_atl main 0 0 O_____________ hurdat_atl AL071956 34.1000 -79.1000 EX 45 1001 -4 10 55
1956265N18274 1956 94 NA NA FLOSSY 1956-09-26 15:00:00 ET 34.3296 -78.6894 main 0 0 P_____________ AL071956 34.3296 -78.6894 EX 45 1001 -4 7 55
1956265N18274 1956 94 NA NA FLOSSY 1956-09-26 18:00:00 ET 34.5000 -78.4000 45 1001 hurdat_atl main 0 0 O_____________ hurdat_atl AL071956 34.5000 -78.4000 EX 45 1001 -4 5 52
1956265N18274 1956 94 NA NA FLOSSY 1956-09-26 21:00:00 ET 34.6648 -78.1773 main 0 0 P_____________ AL071956 34.6648 -78.1773 EX 47 1001 -4 4 48
1956265N18274 1956 94 NA NA FLOSSY 1956-09-27 00:00:00 ET 34.8000 -78.0000 50 1002 hurdat_atl main 0 0 O_____________ hurdat_atl AL071956 34.8000 -78.0000 EX 50 1002 -4 4 53
1956265N18274 1956 94 NA NA FLOSSY 1956-09-27 03:00:00 ET 34.9000 -77.7998 main 0 0 P_____________ AL071956 34.9000 -77.7998 EX 50 1003 -4 4 59
1956265N18274 1956 94 NA NA FLOSSY 1956-09-27 06:00:00 ET 35.0000 -77.6000 50 1005 hurdat_atl main 0 0 O_____________ hurdat_atl AL071956 35.0000 -77.6000 EX 50 1005 -4 4 53
1956265N18274 1956 94 NA NA FLOSSY 1956-09-27 09:00:00 ET 35.1424 -77.4149 main 0 0 P_____________ AL071956 35.1424 -77.4149 EX 50 1006 -4 4 47
1956265N18274 1956 94 NA NA FLOSSY 1956-09-27 12:00:00 ET 35.3000 -77.2000 50 1008 hurdat_atl main 0 0 O_____________ hurdat_atl AL071956 35.3000 -77.2000 EX 50 1008 -4 5 55
1956265N18274 1956 94 NA NA FLOSSY 1956-09-27 15:00:00 ET 35.4198 -76.9369 main 0 0 P_____________ AL071956 35.4198 -76.9369 EX 50 1008 -4 6 58
1956265N18274 1956 94 NA NA FLOSSY 1956-09-27 18:00:00 ET 35.6000 -76.6000 50 1009 hurdat_atl main 0 0 O_____________ hurdat_atl AL071956 35.6000 -76.6000 EX 50 1009 -4 8 52
1956265N18274 1956 94 NA NA FLOSSY 1956-09-27 21:00:00 ET 35.8898 -76.1943 main 0 0 P_____________ AL071956 35.8898 -76.1943 EX 50 1010 -4 10 46
1956265N18274 1956 94 NA NA FLOSSY 1956-09-28 00:00:00 ET 36.3000 -75.7000 50 1011 hurdat_atl main 8 8 O_____________ hurdat_atl AL071956 36.3000 -75.7000 EX 50 1011 -4 13 42
1956265N18274 1956 94 NA NA FLOSSY 1956-09-28 03:00:00 ET 36.8197 -75.1446 main 74 74 P_____________ AL071956 36.8197 -75.1446 EX 50 -4 15 41
1956265N18274 1956 94 NA NA FLOSSY 1956-09-28 06:00:00 ET 37.4000 -74.5000 50 hurdat_atl main 98 98 O_____________ hurdat_atl AL071956 37.4000 -74.5000 EX 50 -4 16 44
1956265N18274 1956 94 NA NA FLOSSY 1956-09-28 09:00:00 ET 37.9574 -73.7721 main 118 118 P_____________ AL071956 37.9574 -73.7721 EX 47 -4 16 47
1956265N18274 1956 94 NA NA FLOSSY 1956-09-28 12:00:00 ET 38.5000 -73.0000 45 hurdat_atl main 157 156 O_____________ hurdat_atl AL071956 38.5000 -73.0000 EX 45 -4 16 47
1956265N18274 1956 94 NA NA FLOSSY 1956-09-28 15:00:00 ET 39.0362 -72.2866 main 180 167 P_____________ AL071956 39.0362 -72.2866 EX 42 -4 15 49
1956265N18274 1956 94 NA NA FLOSSY 1956-09-28 18:00:00 ET 39.5000 -71.5000 40 hurdat_atl main 172 167 O_____________ hurdat_atl AL071956 39.5000 -71.5000 EX 40 -4 16 59
1956265N18274 1956 94 NA NA FLOSSY 1956-09-28 21:00:00 ET 39.8600 -70.5374 main 178 172 P_____________ AL071956 39.8600 -70.5374 EX 37 -4 16 69
1956265N18274 1956 94 NA NA FLOSSY 1956-09-29 00:00:00 ET 40.1000 -69.5000 35 hurdat_atl main 182 179 O_____________ hurdat_atl AL071956 40.1000 -69.5000 EX 35 -4 15 76
1956265N18274 1956 94 NA NA FLOSSY 1956-09-29 03:00:00 ET 40.2255 -68.6102 main 203 203 P_____________ AL071956 40.2255 -68.6102 EX 32 -4 15 83
1956265N18274 1956 94 NA NA FLOSSY 1956-09-29 06:00:00 ET 40.3000 -67.5000 30 hurdat_atl main 260 260 O_____________ hurdat_atl AL071956 40.3000 -67.5000 EX 30 -4 21 84
1956265N18274 1956 94 NA NA FLOSSY 1956-09-29 09:00:00 ET 40.4333 -65.8271 main 344 333 P_____________ AL071956 40.4333 -65.8271 EX 30 -4 27 86
1956265N18274 1956 94 NA NA FLOSSY 1956-09-29 12:00:00 ET 40.5000 -64.0000 30 hurdat_atl main 350 350 O_____________ hurdat_atl AL071956 40.5000 -64.0000 EX 30 -4 26 90
1956265N18274 1956 94 NA NA FLOSSY 1956-09-29 15:00:00 ET 40.4525 -62.3491 main 415 415 P_____________ AL071956 40.4525 -62.3491 EX 30 -4 23 95
1956265N18274 1956 94 NA NA FLOSSY 1956-09-29 18:00:00 ET 40.3000 -61.0000 30 hurdat_atl main 499 499 O_____________ hurdat_atl AL071956 40.3000 -61.0000 EX 30 -4 17 101
1956265N18274 1956 94 NA NA FLOSSY 1956-09-29 21:00:00 ET 40.1296 -60.1017 main 557 557 P_____________ AL071956 40.1296 -60.1017 EX 30 -4 12 114
1956265N18274 1956 94 NA NA FLOSSY 1956-09-30 00:00:00 ET 39.8000 -59.5000 30 hurdat_atl main 607 607 O_____________ hurdat_atl AL071956 39.8000 -59.5000 EX 30 -4 13 137
1956265N18274 1956 94 NA NA FLOSSY 1956-09-30 03:00:00 ET 39.1867 -58.9623 main 686 686 P_____________ AL071956 39.1867 -58.9623 EX 30 -4 15 149
1956265N18274 1956 94 NA NA FLOSSY 1956-09-30 06:00:00 ET 38.5000 -58.5000 30 hurdat_atl main 774 774 O_____________ hurdat_atl AL071956 38.5000 -58.5000 EX 30 -4 14 149
1956265N18274 1956 94 NA NA FLOSSY 1956-09-30 09:00:00 ET 37.9617 -58.0390 main 840 840 P_____________ AL071956 37.9617 -58.0390 EX 30 -4 13 142
1956265N18274 1956 94 NA NA FLOSSY 1956-09-30 12:00:00 ET 37.5000 -57.5000 30 hurdat_atl main 907 907 O_____________ hurdat_atl AL071956 37.5000 -57.5000 EX 30 -4 14 130
1956265N18274 1956 94 NA NA FLOSSY 1956-09-30 15:00:00 ET 37.0788 -56.7118 main 972 972 P_____________ AL071956 37.0788 -56.7118 EX 30 -4 14 124
1956265N18274 1956 94 NA NA FLOSSY 1956-09-30 18:00:00 ET 36.7000 -56.0000 30 hurdat_atl main 1037 1037 O_____________ hurdat_atl AL071956 36.7000 -56.0000 EX 30 -4 12 132
1956265N18274 1956 94 NA NA FLOSSY 1956-09-30 21:00:00 ET 36.2893 -55.6158 main 1092 1092 P_____________ AL071956 36.2893 -55.6158 EX 30 -4 8 150
1956265N18274 1956 94 NA NA FLOSSY 1956-10-01 00:00:00 ET 36.0000 -55.5000 30 hurdat_atl main 1126 1126 O_____________ hurdat_atl AL071956 36.0000 -55.5000 EX 30 -4 4 179
1956265N18274 1956 94 NA NA FLOSSY 1956-10-01 03:00:00 ET 35.8725 -55.5982 main 1133 1116 P_____________ AL071956 35.8725 -55.5982 EX 32 -4 2 270
1956265N18274 1956 94 NA NA FLOSSY 1956-10-01 06:00:00 ET 36.0000 -55.8000 35 hurdat_atl main 1116 1071 O_____________ hurdat_atl AL071956 36.0000 -55.8000 EX 35 -4 6 333
1956265N18274 1956 94 NA NA FLOSSY 1956-10-01 09:00:00 ET 36.3875 -55.9221 main 1071 1006 P_____________ AL071956 36.3875 -55.9221 EX 35 -4 10 351
1956265N18274 1956 94 NA NA FLOSSY 1956-10-01 12:00:00 ET 37.0000 -56.0000 35 hurdat_atl main 1006 935 O_____________ hurdat_atl AL071956 37.0000 -56.0000 EX 35 -4 13 357
1956265N18274 1956 94 NA NA FLOSSY 1956-10-01 15:00:00 ET 37.7125 -56.0008 main 935 855 P_____________ AL071956 37.7125 -56.0008 EX 37 -4 15 0
1956265N18274 1956 94 NA NA FLOSSY 1956-10-01 18:00:00 ET 38.5000 -56.0000 40 hurdat_atl main 855 783 O_____________ hurdat_atl AL071956 38.5000 -56.0000 EX 40 -4 15 358
1956265N18274 1956 94 NA NA FLOSSY 1956-10-01 21:00:00 ET 39.2500 -56.0775 main 783 702 P_____________ AL071956 39.2500 -56.0775 EX 42 -4 15 354
1956265N18274 1956 94 NA NA FLOSSY 1956-10-02 00:00:00 ET 40.0000 -56.2000 45 hurdat_atl main 702 628 O_____________ hurdat_atl AL071956 40.0000 -56.2000 EX 45 -4 15 352
1956265N18274 1956 94 NA NA FLOSSY 1956-10-02 03:00:00 ET 40.7501 -56.3643 main 619 552 P_____________ AL071956 40.7501 -56.3643 EX 47 -4 15 351
1956265N18274 1956 94 NA NA FLOSSY 1956-10-02 06:00:00 ET 41.5000 -56.5000 50 hurdat_atl main 552 489 O_____________ hurdat_atl AL071956 41.5000 -56.5000 EX 50 -4 15 356
1956265N18274 1956 94 NA NA FLOSSY 1956-10-02 09:00:00 ET 42.2500 -56.5233 main 489 421 P_____________ AL071956 42.2500 -56.5233 EX 50 -4 15 0
1956265N18274 1956 94 NA NA FLOSSY 1956-10-02 12:00:00 ET 43.0000 -56.5000 50 hurdat_atl main 421 350 O_____________ hurdat_atl AL071956 43.0000 -56.5000 EX 50 -4 15 0
1956265N18274 1956 94 NA NA FLOSSY 1956-10-02 15:00:00 ET 43.7500 -56.5000 main 339 262 P_____________ AL071956 43.7500 -56.5000 EX 47 -4 15 0
1956265N18274 1956 94 NA NA FLOSSY 1956-10-02 18:00:00 ET 44.5000 -56.5000 45 hurdat_atl main 262 188 O_____________ hurdat_atl AL071956 44.5000 -56.5000 EX 45 -4 15 0
1956265N18274 1956 94 NA NA FLOSSY 1956-10-02 21:00:00 ET 45.2500 -56.5000 main 177 107 P_____________ AL071956 45.2500 -56.5000 EX 42 -4 15 0
1956265N18274 1956 94 NA NA FLOSSY 1956-10-03 00:00:00 ET 46.0000 -56.5000 40 hurdat_atl main 107 50 O_____________ hurdat_atl AL071956 46.0000 -56.5000 EX 40 -4 15 0
1956265N18274 1956 94 NA NA FLOSSY 1956-10-03 03:00:00 ET 46.7500 -56.5000 main 43 11 P_____________ AL071956 46.7500 -56.5000 EX 40 -4 15 0
1956265N18274 1956 94 NA NA FLOSSY 1956-10-03 06:00:00 ET 47.5000 -56.5000 40 hurdat_atl main 11 O_____________ hurdat_atl AL071956 47.5000 -56.5000 EX 40 -4 15 0

About IBTrACS Database

This database is a web-friendly format of International Best Track Archive for Climate Stewardship (IBTrACS), a global best track data archive curated by NOAA dating back to 1842.

Updated: 2021-11-26